createdAt,value
2023-03-29T00:02:07.715Z,28.59
2023-03-29T00:04:34.619Z,28.84
2023-03-29T00:07:04.294Z,28.60
2023-03-29T00:09:32.990Z,28.70
2023-03-29T00:12:00.233Z,28.67
2023-03-29T00:14:27.071Z,28.80
2023-03-29T00:16:53.712Z,28.63
2023-03-29T00:19:20.450Z,28.66
2023-03-29T00:21:47.073Z,28.72
2023-03-29T00:24:13.624Z,28.66
2023-03-29T00:26:40.320Z,28.65
2023-03-29T00:29:06.855Z,29.02
2023-03-29T00:31:33.431Z,28.73
2023-03-29T00:34:00.087Z,28.85
2023-03-29T00:36:28.977Z,28.74
2023-03-29T00:38:56.514Z,28.65
2023-03-29T00:41:24.230Z,28.70
2023-03-29T00:43:52.309Z,28.73
2023-03-29T00:46:19.046Z,28.74
2023-03-29T00:48:46.513Z,28.58
2023-03-29T00:51:14.351Z,28.70
2023-03-29T00:53:44.050Z,28.67
2023-03-29T00:56:15.389Z,28.68
2023-03-29T00:59:05.618Z,28.85
2023-03-29T01:01:42.462Z,28.53
2023-03-29T01:04:37.553Z,28.88
2023-03-29T01:07:17.845Z,28.76
2023-03-29T01:09:45.920Z,28.82
2023-03-29T01:12:18.327Z,28.86
2023-03-29T01:14:48.613Z,28.57
2023-03-29T01:17:15.970Z,28.87
2023-03-29T01:19:45.963Z,28.73
2023-03-29T01:22:22.538Z,28.80
2023-03-29T01:25:05.241Z,28.72
2023-03-29T01:27:50.491Z,28.84
2023-03-29T01:30:36.246Z,28.92
2023-03-29T01:33:08.409Z,28.68
2023-03-29T01:35:44.671Z,28.80
2023-03-29T01:38:30.520Z,28.93
2023-03-29T01:40:57.132Z,29.05
2023-03-29T01:43:27.922Z,29.24
2023-03-29T01:46:12.443Z,29.09
2023-03-29T01:48:50.908Z,28.79
2023-03-29T01:51:22.553Z,29.06
2023-03-29T01:54:04.700Z,29.13
2023-03-29T01:56:32.081Z,28.91
2023-03-29T01:59:02.008Z,29.33
2023-03-29T02:01:34.469Z,29.04
2023-03-29T02:04:02.985Z,29.22
2023-03-29T02:06:32.726Z,29.15
2023-03-29T02:09:00.263Z,29.40
2023-03-29T02:11:29.239Z,29.16
2023-03-29T02:13:56.894Z,29.10
2023-03-29T02:16:23.438Z,29.10
2023-03-29T02:18:50.526Z,28.85
2023-03-29T02:21:24.885Z,29.19
2023-03-29T02:23:51.541Z,29.10
2023-03-29T02:26:18.801Z,28.93
2023-03-29T02:28:46.584Z,29.02
2023-03-29T02:31:37.298Z,28.92
2023-03-29T02:34:26.650Z,28.90
2023-03-29T02:36:54.703Z,28.98
2023-03-29T02:39:21.331Z,29.06
2023-03-29T02:41:49.527Z,29.15
2023-03-29T02:44:27.265Z,28.85
2023-03-29T02:46:57.021Z,29.03
2023-03-29T02:49:23.730Z,29.02
2023-03-29T02:51:52.706Z,29.00
2023-03-29T02:54:23.790Z,28.98
2023-03-29T02:56:58.562Z,29.37
2023-03-29T02:59:25.747Z,29.11
2023-03-29T03:01:52.756Z,29.14
2023-03-29T03:04:22.927Z,29.20
2023-03-29T03:06:49.632Z,29.23
2023-03-29T03:09:16.233Z,29.10
2023-03-29T03:11:45.802Z,29.13
2023-03-29T03:14:12.609Z,29.18
2023-03-29T03:16:39.350Z,29.20
2023-03-29T03:19:06.593Z,28.84
2023-03-29T03:21:34.038Z,28.84
2023-03-29T03:24:00.676Z,29.35
2023-03-29T03:26:30.010Z,29.20
2023-03-29T03:28:57.138Z,29.17
2023-03-29T03:31:42.949Z,29.16
2023-03-29T03:34:13.193Z,29.03
2023-03-29T03:36:55.610Z,29.12
2023-03-29T03:39:22.828Z,29.22
2023-03-29T03:41:49.948Z,29.14
2023-03-29T03:44:18.027Z,29.06
2023-03-29T03:46:47.310Z,29.22
2023-03-29T03:49:13.931Z,28.97
2023-03-29T03:51:45.314Z,29.17
2023-03-29T03:54:12.305Z,29.31
2023-03-29T03:57:07.875Z,29.08
2023-03-29T03:59:42.150Z,29.03
2023-03-29T04:02:12.320Z,29.11
2023-03-29T04:04:40.536Z,29.51
2023-03-29T04:07:17.898Z,29.32
2023-03-29T04:10:03.820Z,29.30
2023-03-29T04:13:02.676Z,29.29
2023-03-29T04:15:33.007Z,29.25
2023-03-29T04:18:07.500Z,29.09
2023-03-29T04:20:40.702Z,29.24
2023-03-29T04:23:07.686Z,29.24
2023-03-29T04:25:36.366Z,29.56
2023-03-29T04:28:22.914Z,29.61
2023-03-29T04:31:05.977Z,29.51
2023-03-29T04:34:00.440Z,29.26
2023-03-29T04:36:28.058Z,29.22
2023-03-29T04:38:54.670Z,29.07
2023-03-29T04:41:21.647Z,29.24
2023-03-29T04:43:48.227Z,29.28
2023-03-29T04:46:26.323Z,29.14
2023-03-29T04:48:58.890Z,29.14
2023-03-29T04:51:47.725Z,29.81
2023-03-29T04:54:16.946Z,29.52
2023-03-29T04:57:06.218Z,29.51
2023-03-29T04:59:55.698Z,29.69
2023-03-29T05:02:45.342Z,29.72
2023-03-29T05:05:13.300Z,29.83
2023-03-29T05:07:40.900Z,29.85
2023-03-29T05:10:09.238Z,29.59
2023-03-29T05:12:36.631Z,29.58
2023-03-29T05:15:04.909Z,29.67
2023-03-29T05:17:32.455Z,29.77
2023-03-29T05:20:10.212Z,29.89
2023-03-29T05:22:38.296Z,29.34
2023-03-29T05:25:08.001Z,29.68
2023-03-29T05:27:34.778Z,29.86
2023-03-29T05:30:08.847Z,29.65
2023-03-29T05:32:55.718Z,29.61
2023-03-29T05:35:26.238Z,29.47
2023-03-29T05:37:55.208Z,29.55
2023-03-29T05:40:22.215Z,29.39
2023-03-29T05:43:09.107Z,29.54
2023-03-29T05:45:35.808Z,29.54
2023-03-29T05:48:03.952Z,29.57
2023-03-29T05:50:31.971Z,29.67
2023-03-29T05:52:59.411Z,29.73
2023-03-29T05:55:26.026Z,29.93
2023-03-29T05:57:53.002Z,29.71
2023-03-29T06:00:24.267Z,29.67
2023-03-29T06:03:03.724Z,29.57
2023-03-29T06:05:40.426Z,29.62
2023-03-29T06:08:07.145Z,29.50
2023-03-29T06:11:06.565Z,29.28
2023-03-29T06:13:52.829Z,29.34
2023-03-29T06:16:19.891Z,29.32
2023-03-29T06:18:46.499Z,29.16
2023-03-29T06:21:15.925Z,29.47
2023-03-29T06:23:43.018Z,29.45
2023-03-29T06:26:10.568Z,29.37
2023-03-29T06:28:37.912Z,29.42
2023-03-29T06:31:05.233Z,29.27
2023-03-29T06:33:38.094Z,29.20
2023-03-29T06:36:24.274Z,29.11
2023-03-29T06:38:51.347Z,28.98
2023-03-29T06:41:24.921Z,29.06
2023-03-29T06:44:06.976Z,29.01
2023-03-29T06:46:41.116Z,28.84
2023-03-29T06:49:08.462Z,28.70
2023-03-29T06:51:50.256Z,29.27
2023-03-29T06:54:16.991Z,29.08
2023-03-29T06:56:59.538Z,29.27
2023-03-29T06:59:28.810Z,29.15
2023-03-29T07:02:07.383Z,29.18
2023-03-29T07:04:46.155Z,29.53
2023-03-29T07:07:27.321Z,29.48
2023-03-29T07:10:07.433Z,29.48
2023-03-29T07:13:02.935Z,29.06
2023-03-29T07:15:29.941Z,29.30
2023-03-29T07:18:22.429Z,29.14
2023-03-29T07:20:49.408Z,29.13
2023-03-29T07:23:16.270Z,29.24
2023-03-29T07:25:44.755Z,29.04
2023-03-29T07:28:11.409Z,29.13
2023-03-29T07:30:38.679Z,29.28
2023-03-29T07:33:14.344Z,29.39
2023-03-29T07:35:49.522Z,29.33
2023-03-29T07:38:16.100Z,29.39
2023-03-29T07:40:48.095Z,29.42
2023-03-29T07:43:47.310Z,29.42
2023-03-29T07:46:17.474Z,29.34
2023-03-29T07:48:44.150Z,29.38
2023-03-29T07:51:13.744Z,29.26
2023-03-29T07:53:53.695Z,29.10
2023-03-29T07:56:38.465Z,29.17
2023-03-29T07:59:16.903Z,29.30
2023-03-29T08:01:47.588Z,29.39
2023-03-29T08:04:26.439Z,29.21
2023-03-29T08:07:22.556Z,29.40
2023-03-29T08:10:16.699Z,29.42
2023-03-29T08:13:04.062Z,29.64
2023-03-29T08:15:39.353Z,29.61
2023-03-29T08:18:16.072Z,31.32
2023-03-29T08:20:42.740Z,30.76
2023-03-29T08:23:09.546Z,30.25
2023-03-29T08:26:09.290Z,30.19
2023-03-29T08:28:36.720Z,30.29
2023-03-29T08:31:03.492Z,30.33
2023-03-29T08:33:30.506Z,30.19
2023-03-29T08:36:17.637Z,30.37
2023-03-29T08:38:45.389Z,30.31
2023-03-29T08:41:44.392Z,30.21
2023-03-29T08:44:17.635Z,30.40
2023-03-29T08:47:04.357Z,30.37
2023-03-29T08:49:37.021Z,30.23
2023-03-29T08:52:12.058Z,30.44
2023-03-29T08:54:43.819Z,30.19
2023-03-29T08:57:17.502Z,30.17
2023-03-29T08:59:51.436Z,30.29
2023-03-29T09:02:22.675Z,30.06
2023-03-29T09:04:52.970Z,30.10
2023-03-29T09:07:35.138Z,29.86
2023-03-29T09:10:02.096Z,29.70
2023-03-29T09:12:51.978Z,29.71
2023-03-29T09:15:19.523Z,29.58
2023-03-29T09:18:13.988Z,29.46
2023-03-29T09:20:59.483Z,29.43
2023-03-29T09:24:10.191Z,29.55
2023-03-29T09:26:56.162Z,29.60
2023-03-29T09:29:41.326Z,29.45
2023-03-29T09:32:16.883Z,29.61
2023-03-29T09:34:44.886Z,29.78
2023-03-29T09:37:23.023Z,29.71
2023-03-29T09:39:52.985Z,29.78
2023-03-29T09:42:21.604Z,29.82
2023-03-29T09:44:50.864Z,29.94
2023-03-29T09:47:28.257Z,29.80
2023-03-29T09:50:23.135Z,29.77
2023-03-29T09:52:54.261Z,29.90
2023-03-29T09:55:32.198Z,29.58
2023-03-29T09:58:24.552Z,29.58
2023-03-29T10:00:53.785Z,29.76
2023-03-29T10:03:25.249Z,29.79
2023-03-29T10:06:00.273Z,30.35
2023-03-29T10:08:28.946Z,30.46
2023-03-29T10:10:58.486Z,29.94
2023-03-29T10:13:32.341Z,30.87
2023-03-29T10:16:02.196Z,29.72
2023-03-29T10:18:30.833Z,32.54
2023-03-29T10:21:02.885Z,31.20
2023-03-29T10:23:31.734Z,32.04
2023-03-29T10:25:58.345Z,33.46
2023-03-29T10:28:26.250Z,31.90
2023-03-29T10:30:54.106Z,32.01
2023-03-29T10:33:21.935Z,31.16
2023-03-29T10:35:48.686Z,30.92
2023-03-29T10:38:19.309Z,30.90
2023-03-29T10:40:50.261Z,30.78
2023-03-29T10:43:19.764Z,31.13
2023-03-29T10:45:50.838Z,30.65
2023-03-29T10:48:17.775Z,30.66
2023-03-29T10:50:48.976Z,30.72
2023-03-29T10:53:19.151Z,30.64
2023-03-29T10:55:59.013Z,30.73
2023-03-29T10:58:48.293Z,30.69
2023-03-29T11:01:21.649Z,30.46
2023-03-29T11:04:13.556Z,31.54
2023-03-29T11:07:12.237Z,31.40
2023-03-29T11:09:45.181Z,31.50
2023-03-29T11:12:33.926Z,30.33
2023-03-29T11:15:15.781Z,30.79
2023-03-29T11:18:00.898Z,30.21
2023-03-29T11:20:29.115Z,30.28
2023-03-29T11:23:46.150Z,29.86
2023-03-29T11:26:29.354Z,29.78
2023-03-29T11:29:02.703Z,28.89
2023-03-29T11:31:29.192Z,27.77
2023-03-29T11:33:56.170Z,27.33
2023-03-29T11:36:55.126Z,27.13
2023-03-29T11:39:40.926Z,26.91
2023-03-29T11:42:11.709Z,27.39
2023-03-29T11:44:38.438Z,27.40
2023-03-29T11:47:15.566Z,27.37
2023-03-29T11:49:54.369Z,27.36
2023-03-29T11:52:36.017Z,27.69
2023-03-29T11:55:15.451Z,27.62
2023-03-29T11:57:49.787Z,27.94
2023-03-29T12:00:19.850Z,27.82
2023-03-29T12:03:06.717Z,28.07
2023-03-29T12:05:48.293Z,28.27
2023-03-29T12:08:17.640Z,28.03
2023-03-29T12:10:48.364Z,28.48
2023-03-29T12:13:15.019Z,28.30
2023-03-29T12:15:43.853Z,28.08
2023-03-29T12:18:32.117Z,28.00
2023-03-29T12:21:00.479Z,28.10
2023-03-29T12:23:30.695Z,28.38
2023-03-29T12:26:10.693Z,28.43
2023-03-29T12:29:05.358Z,28.31
2023-03-29T12:31:57.416Z,28.47
2023-03-29T12:34:51.694Z,28.35
2023-03-29T12:37:47.253Z,28.45
2023-03-29T12:40:43.120Z,28.49
2023-03-29T12:43:33.017Z,28.37
2023-03-29T12:46:19.995Z,28.58
2023-03-29T12:48:49.077Z,28.28
2023-03-29T12:51:23.986Z,28.63
2023-03-29T12:53:54.926Z,28.50
2023-03-29T12:56:23.514Z,28.53
2023-03-29T12:58:59.508Z,28.67
2023-03-29T13:01:27.024Z,28.69
2023-03-29T13:04:13.726Z,28.66
2023-03-29T13:06:46.528Z,28.39
2023-03-29T13:09:24.213Z,28.33
2023-03-29T13:12:27.639Z,28.58
2023-03-29T13:15:01.958Z,28.85
2023-03-29T13:17:50.022Z,28.66
2023-03-29T13:20:25.933Z,28.84
2023-03-29T13:23:17.981Z,28.73
2023-03-29T13:26:09.416Z,28.73
2023-03-29T13:28:44.328Z,28.41
2023-03-29T13:31:35.367Z,27.05
2023-03-29T13:34:01.875Z,26.11
2023-03-29T13:36:39.175Z,25.80
2023-03-29T13:39:07.022Z,25.61
2023-03-29T13:41:54.274Z,25.56
2023-03-29T13:44:27.229Z,25.40
2023-03-29T13:47:03.925Z,25.84
2023-03-29T13:49:31.648Z,25.80
2023-03-29T13:52:03.223Z,25.93
2023-03-29T13:54:31.380Z,26.02
2023-03-29T13:57:17.784Z,26.06
2023-03-29T13:59:51.736Z,26.42
2023-03-29T14:02:28.751Z,26.61
2023-03-29T14:04:55.995Z,26.38
2023-03-29T14:07:26.244Z,26.71
2023-03-29T14:09:52.971Z,26.75
2023-03-29T14:12:20.063Z,26.78
2023-03-29T14:14:58.135Z,26.78
2023-03-29T14:17:25.674Z,26.96
2023-03-29T14:19:52.249Z,27.09
2023-03-29T14:22:19.851Z,26.98
2023-03-29T14:24:51.551Z,27.00
2023-03-29T14:27:19.085Z,27.19
2023-03-29T14:29:46.950Z,27.00
2023-03-29T14:32:29.292Z,27.18
2023-03-29T14:34:56.088Z,27.31
2023-03-29T14:37:25.313Z,27.29
2023-03-29T14:39:51.981Z,27.42
2023-03-29T14:42:22.928Z,27.12
2023-03-29T14:44:50.185Z,27.75
2023-03-29T14:47:21.344Z,27.55
2023-03-29T14:49:47.932Z,27.78
2023-03-29T14:52:14.714Z,27.63
2023-03-29T14:54:43.404Z,27.33
2023-03-29T14:57:18.426Z,27.45
2023-03-29T15:00:14.896Z,27.50
2023-03-29T15:02:49.010Z,27.84
2023-03-29T15:05:39.505Z,27.77
2023-03-29T15:08:11.893Z,27.79
2023-03-29T15:10:38.829Z,28.02
2023-03-29T15:13:06.710Z,28.07
2023-03-29T15:15:34.609Z,28.13
2023-03-29T15:18:02.043Z,27.94
2023-03-29T15:20:31.530Z,27.95
2023-03-29T15:23:04.571Z,28.24
2023-03-29T15:25:36.355Z,28.20
2023-03-29T15:28:03.333Z,28.07
2023-03-29T15:30:45.075Z,28.47
2023-03-29T15:33:22.972Z,28.13
2023-03-29T15:35:51.354Z,28.29
2023-03-29T15:38:18.421Z,28.23
2023-03-29T15:40:45.222Z,28.10
2023-03-29T15:43:11.957Z,28.13
2023-03-29T15:45:38.604Z,28.32
2023-03-29T15:48:33.615Z,28.09
2023-03-29T15:51:03.209Z,28.21
2023-03-29T15:53:32.287Z,28.17
2023-03-29T15:56:00.011Z,28.17
2023-03-29T15:58:29.021Z,28.20
2023-03-29T16:01:37.596Z,28.09
2023-03-29T16:04:05.975Z,28.11
2023-03-29T16:06:33.411Z,28.23
2023-03-29T16:09:00.454Z,27.87
2023-03-29T16:11:28.315Z,28.16
2023-03-29T16:13:55.773Z,28.41
2023-03-29T16:16:22.596Z,28.60
2023-03-29T16:18:49.272Z,28.38
2023-03-29T16:21:18.164Z,28.34
2023-03-29T16:23:45.920Z,28.24
2023-03-29T16:26:14.066Z,27.81
2023-03-29T16:28:41.014Z,28.06
2023-03-29T16:31:11.963Z,28.10
2023-03-29T16:33:39.355Z,28.40
2023-03-29T16:36:06.770Z,28.52
2023-03-29T16:38:34.146Z,28.78
2023-03-29T16:41:01.561Z,28.79
2023-03-29T16:43:28.242Z,28.58
2023-03-29T16:45:54.831Z,28.83
2023-03-29T16:48:21.803Z,28.58
2023-03-29T16:50:49.469Z,28.46
2023-03-29T16:53:18.182Z,28.68
2023-03-29T16:55:47.807Z,29.35
2023-03-29T16:58:15.260Z,29.39
2023-03-29T17:00:42.083Z,29.44
2023-03-29T17:03:08.920Z,29.20
2023-03-29T17:05:39.887Z,29.43
2023-03-29T17:08:06.890Z,29.80
2023-03-29T17:10:33.614Z,29.23
2023-03-29T17:13:00.821Z,28.88
2023-03-29T17:15:27.566Z,28.82
2023-03-29T17:17:54.476Z,28.95
2023-03-29T17:20:21.227Z,28.95
2023-03-29T17:22:51.512Z,28.81
2023-03-29T17:25:18.608Z,29.03
2023-03-29T17:27:46.109Z,29.20
2023-03-29T17:30:13.017Z,29.14
2023-03-29T17:32:41.577Z,29.29
2023-03-29T17:35:09.475Z,29.22
2023-03-29T17:37:36.343Z,29.35
2023-03-29T17:40:11.566Z,29.28
2023-03-29T17:42:38.293Z,29.20
2023-03-29T17:45:05.507Z,29.16
2023-03-29T17:47:32.124Z,29.21
2023-03-29T17:49:59.364Z,29.35
2023-03-29T17:52:26.296Z,29.49
2023-03-29T17:54:52.905Z,29.20
2023-03-29T17:57:19.624Z,29.42
2023-03-29T17:59:46.305Z,29.43
2023-03-29T18:02:20.631Z,29.40
2023-03-29T18:04:47.408Z,29.37
2023-03-29T18:07:15.445Z,29.63
2023-03-29T18:09:42.505Z,29.57
2023-03-29T18:12:09.140Z,29.63
2023-03-29T18:14:36.050Z,29.64
2023-03-29T18:17:02.867Z,29.70
2023-03-29T18:19:29.651Z,29.70
2023-03-29T18:21:56.420Z,29.52
2023-03-29T18:24:23.124Z,29.83
2023-03-29T18:26:49.687Z,29.73
2023-03-29T18:29:16.385Z,29.45
2023-03-29T18:31:43.866Z,29.38
2023-03-29T18:34:10.563Z,29.54
2023-03-29T18:36:37.547Z,29.72
2023-03-29T18:39:07.153Z,29.71
2023-03-29T18:41:34.224Z,29.73
2023-03-29T18:44:01.492Z,29.54
2023-03-29T18:46:31.273Z,29.82
2023-03-29T18:49:01.436Z,29.67
2023-03-29T18:51:28.319Z,29.52
2023-03-29T18:53:55.507Z,29.54
2023-03-29T18:56:22.487Z,29.57
2023-03-29T18:58:49.619Z,29.42
2023-03-29T19:01:16.813Z,29.33
2023-03-29T19:03:43.704Z,29.20
2023-03-29T19:06:11.784Z,29.44
2023-03-29T19:08:40.523Z,29.29
2023-03-29T19:11:08.476Z,29.17
2023-03-29T19:13:35.450Z,29.44
2023-03-29T19:16:02.703Z,29.19
2023-03-29T19:18:29.503Z,29.05
2023-03-29T19:20:57.053Z,29.26
2023-03-29T19:23:26.041Z,29.23
2023-03-29T19:25:53.823Z,29.30
2023-03-29T19:28:20.580Z,29.08
2023-03-29T19:30:47.342Z,29.42
2023-03-29T19:33:14.637Z,29.40
2023-03-29T19:35:41.547Z,29.19
2023-03-29T19:38:08.266Z,29.27
2023-03-29T19:40:34.955Z,29.55
2023-03-29T19:43:02.046Z,29.59
2023-03-29T19:45:29.221Z,29.74
2023-03-29T19:48:02.864Z,29.76
2023-03-29T19:50:31.613Z,29.67
2023-03-29T19:52:59.521Z,29.63
2023-03-29T19:55:29.733Z,29.58
2023-03-29T19:57:56.447Z,29.95
2023-03-29T20:00:25.040Z,29.86
2023-03-29T20:02:54.392Z,29.91
2023-03-29T20:05:21.533Z,29.96
2023-03-29T20:07:48.254Z,30.21
2023-03-29T20:10:14.990Z,29.91
2023-03-29T20:12:41.759Z,29.79
2023-03-29T20:15:09.122Z,29.81
2023-03-29T20:17:35.841Z,29.48
2023-03-29T20:20:06.551Z,29.46
2023-03-29T20:22:33.144Z,29.40
2023-03-29T20:24:59.705Z,29.41
2023-03-29T20:27:29.168Z,29.46
2023-03-29T20:29:56.052Z,29.57
2023-03-29T20:32:22.680Z,29.90
2023-03-29T20:34:49.407Z,29.92
2023-03-29T20:37:16.077Z,29.94
2023-03-29T20:39:43.084Z,30.07
2023-03-29T20:42:09.681Z,29.82
2023-03-29T20:44:36.644Z,29.89
2023-03-29T20:47:04.873Z,29.84
2023-03-29T20:49:37.562Z,29.55
2023-03-29T20:52:07.978Z,29.49
2023-03-29T20:54:35.531Z,29.54
2023-03-29T20:57:02.176Z,29.50
2023-03-29T20:59:29.732Z,29.58
2023-03-29T21:01:56.665Z,29.50
2023-03-29T21:04:23.352Z,29.57
2023-03-29T21:06:50.361Z,29.86
2023-03-29T21:09:19.181Z,29.66
2023-03-29T21:11:45.908Z,29.76
2023-03-29T21:14:12.585Z,29.55
2023-03-29T21:16:42.362Z,29.76
2023-03-29T21:19:09.755Z,29.74
2023-03-29T21:21:36.420Z,29.59
2023-03-29T21:24:03.731Z,29.85
2023-03-29T21:26:30.630Z,29.58
2023-03-29T21:29:00.323Z,29.76
2023-03-29T21:31:27.778Z,29.61
2023-03-29T21:33:56.524Z,29.67
2023-03-29T21:36:26.324Z,29.67
2023-03-29T21:38:53.025Z,29.93
2023-03-29T21:41:19.735Z,30.03
2023-03-29T21:43:46.376Z,29.69
2023-03-29T21:46:16.385Z,29.86
2023-03-29T21:48:43.103Z,29.61
2023-03-29T21:51:09.687Z,29.78
2023-03-29T21:53:36.621Z,29.78
2023-03-29T21:56:05.990Z,29.97
2023-03-29T21:58:32.648Z,29.99
2023-03-29T22:00:59.278Z,29.92
2023-03-29T22:03:25.910Z,30.20
2023-03-29T22:05:59.798Z,30.02
2023-03-29T22:08:29.407Z,30.10
2023-03-29T22:11:08.088Z,29.92
2023-03-29T22:13:35.162Z,30.05
2023-03-29T22:16:03.580Z,30.15
2023-03-29T22:18:44.195Z,30.10
2023-03-29T22:21:18.634Z,30.09
2023-03-29T22:23:46.760Z,29.84
2023-03-29T22:26:14.365Z,29.84
2023-03-29T22:28:41.631Z,29.90
2023-03-29T22:31:12.529Z,29.96
2023-03-29T22:33:39.653Z,30.08
2023-03-29T22:36:16.337Z,29.95
2023-03-29T22:38:43.638Z,30.24
2023-03-29T22:41:10.278Z,30.19
2023-03-29T22:43:37.113Z,30.13
2023-03-29T22:46:05.310Z,30.12
2023-03-29T22:48:31.896Z,30.13
2023-03-29T22:50:58.615Z,30.27
2023-03-29T22:53:25.617Z,30.18
2023-03-29T22:55:52.180Z,30.19
2023-03-29T22:58:18.680Z,30.19
2023-03-29T23:00:45.487Z,30.14
2023-03-29T23:03:12.090Z,30.20
2023-03-29T23:05:38.834Z,30.16
2023-03-29T23:08:06.814Z,30.33
2023-03-29T23:10:33.571Z,30.25
2023-03-29T23:13:10.331Z,30.34
2023-03-29T23:15:37.719Z,30.36
2023-03-29T23:18:04.715Z,30.37
2023-03-29T23:20:34.994Z,30.24
2023-03-29T23:23:02.443Z,30.29
2023-03-29T23:25:29.983Z,30.45
2023-03-29T23:27:56.573Z,30.45
2023-03-29T23:30:23.341Z,30.27
2023-03-29T23:32:50.164Z,30.30
2023-03-29T23:35:16.924Z,30.44
2023-03-29T23:37:43.507Z,30.27
2023-03-29T23:40:14.054Z,30.33
2023-03-29T23:42:41.119Z,30.30
2023-03-29T23:45:08.916Z,30.30
2023-03-29T23:47:35.699Z,30.35
2023-03-29T23:50:02.396Z,30.10
2023-03-29T23:52:30.114Z,30.15
2023-03-29T23:54:56.688Z,30.08
2023-03-29T23:57:23.537Z,30.25
2023-03-29T23:59:52.606Z,30.15
